Clarke City, Canada
Current Conditions -  °F | °C
As of 2:00 PM on Friday 24 Oct 2014 (Local Time) from CYZV Reporting Station
Broken Clouds Broken Clouds  
Wind Chill: 57°   Ceiling: 26000
Heat Index: 57°   Visibility: 30mi
Dew Point: 19°   Wind: 6mph
Humidity: 23%   Direction: 220°SW
Pressure: 29.86"   Gusts: NA
Location:  50.2°N, 66.63°W
Report Text: CYZV 241800Z 22005KT 30SM FEW150 BKN260 14/M07 A2986 RMK AC1CI7 AC TR SLP113
Loading
Personal Weather Stations






























Interactive Weather Map
Tropical Storm Tracking
New forecast layout! Learn more

10-Day Weather Forecast

Advertisements
Track Severe Weather on mobile